sensor_id;sensor_type;location;lat;lon;timestamp;temperature;humidity
60309;DHT22;50313;52.894;6.492;2023-09-30T00:00:55;11.00;99.90
60309;DHT22;50313;52.894;6.492;2023-09-30T00:03:21;11.00;99.90
60309;DHT22;50313;52.894;6.492;2023-09-30T00:05:46;11.00;99.90
60309;DHT22;50313;52.894;6.492;2023-09-30T00:08:12;11.10;99.90
60309;DHT22;50313;52.894;6.492;2023-09-30T00:10:38;11.10;99.90
60309;DHT22;50313;52.894;6.492;2023-09-30T00:13:03;11.00;99.90
60309;DHT22;50313;52.894;6.492;2023-09-30T00:15:32;10.90;99.90
60309;DHT22;50313;52.894;6.492;2023-09-30T00:17:58;10.90;99.90
60309;DHT22;50313;52.894;6.492;2023-09-30T00:20:24;10.90;99.90
60309;DHT22;50313;52.894;6.492;2023-09-30T00:22:50;10.90;99.90
60309;DHT22;50313;52.894;6.492;2023-09-30T00:25:16;10.90;99.90
60309;DHT22;50313;52.894;6.492;2023-09-30T00:27:41;11.00;99.90
60309;DHT22;50313;52.894;6.492;2023-09-30T00:30:07;11.00;99.90
60309;DHT22;50313;52.894;6.492;2023-09-30T00:32:33;11.10;99.90
60309;DHT22;50313;52.894;6.492;2023-09-30T00:35:01;11.10;99.90
60309;DHT22;50313;52.894;6.492;2023-09-30T00:37:27;11.10;99.90
60309;DHT22;50313;52.894;6.492;2023-09-30T00:39:59;11.10;99.90
60309;DHT22;50313;52.894;6.492;2023-09-30T00:42:25;11.10;99.90
60309;DHT22;50313;52.894;6.492;2023-09-30T00:44:51;11.10;99.90
60309;DHT22;50313;52.894;6.492;2023-09-30T00:47:16;11.10;99.90
60309;DHT22;50313;52.894;6.492;2023-09-30T00:49:42;11.10;99.90
60309;DHT22;50313;52.894;6.492;2023-09-30T00:52:09;11.10;99.90
60309;DHT22;50313;52.894;6.492;2023-09-30T00:54:36;11.20;99.90
60309;DHT22;50313;52.894;6.492;2023-09-30T00:57:03;11.20;99.90
60309;DHT22;50313;52.894;6.492;2023-09-30T00:59:31;11.20;99.90
60309;DHT22;50313;52.894;6.492;2023-09-30T01:01:59;11.20;99.90
60309;DHT22;50313;52.894;6.492;2023-09-30T01:04:29;11.20;99.90
60309;DHT22;50313;52.894;6.492;2023-09-30T01:06:55;11.20;99.90
60309;DHT22;50313;52.894;6.492;2023-09-30T01:09:23;11.20;99.90
60309;DHT22;50313;52.894;6.492;2023-09-30T01:11:49;11.20;99.90
60309;DHT22;50313;52.894;6.492;2023-09-30T01:16:51;11.20;99.90
60309;DHT22;50313;52.894;6.492;2023-09-30T01:19:16;11.20;99.90
60309;DHT22;50313;52.894;6.492;2023-09-30T01:21:42;11.20;99.90
60309;DHT22;50313;52.894;6.492;2023-09-30T01:24:14;11.20;99.90
60309;DHT22;50313;52.894;6.492;2023-09-30T01:26:40;11.20;99.90
60309;DHT22;50313;52.894;6.492;2023-09-30T01:29:08;11.20;99.90
60309;DHT22;50313;52.894;6.492;2023-09-30T01:31:40;11.20;99.90
60309;DHT22;50313;52.894;6.492;2023-09-30T01:34:05;11.20;99.90
60309;DHT22;50313;52.894;6.492;2023-09-30T01:36:31;11.20;99.90
60309;DHT22;50313;52.894;6.492;2023-09-30T01:38:58;11.30;99.90
60309;DHT22;50313;52.894;6.492;2023-09-30T01:41:23;11.20;99.90
60309;DHT22;50313;52.894;6.492;2023-09-30T01:43:49;11.20;99.90
60309;DHT22;50313;52.894;6.492;2023-09-30T01:46:15;11.20;99.90
60309;DHT22;50313;52.894;6.492;2023-09-30T01:48:41;11.20;99.90
60309;DHT22;50313;52.894;6.492;2023-09-30T01:51:07;11.20;99.90
60309;DHT22;50313;52.894;6.492;2023-09-30T01:53:33;11.20;99.90
60309;DHT22;50313;52.894;6.492;2023-09-30T01:55:59;11.20;99.90
60309;DHT22;50313;52.894;6.492;2023-09-30T01:58:25;11.10;99.90
60309;DHT22;50313;52.894;6.492;2023-09-30T02:00:52;11.10;99.90
60309;DHT22;50313;52.894;6.492;2023-09-30T02:03:17;11.00;99.90
60309;DHT22;50313;52.894;6.492;2023-09-30T02:05:43;11.00;99.90
60309;DHT22;50313;52.894;6.492;2023-09-30T02:08:09;10.90;99.90
60309;DHT22;50313;52.894;6.492;2023-09-30T02:10:35;10.90;99.90
60309;DHT22;50313;52.894;6.492;2023-09-30T02:13:01;10.90;99.90
60309;DHT22;50313;52.894;6.492;2023-09-30T02:15:27;10.90;99.90
60309;DHT22;50313;52.894;6.492;2023-09-30T02:17:53;10.90;99.90
60309;DHT22;50313;52.894;6.492;2023-09-30T02:20:19;10.90;99.90
60309;DHT22;50313;52.894;6.492;2023-09-30T02:22:47;10.90;99.90
60309;DHT22;50313;52.894;6.492;2023-09-30T02:25:14;10.80;99.90
60309;DHT22;50313;52.894;6.492;2023-09-30T02:27:41;10.90;99.90
60309;DHT22;50313;52.894;6.492;2023-09-30T02:30:08;10.90;99.90
60309;DHT22;50313;52.894;6.492;2023-09-30T02:32:33;10.90;99.90
60309;DHT22;50313;52.894;6.492;2023-09-30T02:34:59;10.80;99.90
60309;DHT22;50313;52.894;6.492;2023-09-30T02:37:25;10.80;99.90
60309;DHT22;50313;52.894;6.492;2023-09-30T02:39:51;10.80;99.90
60309;DHT22;50313;52.894;6.492;2023-09-30T02:42:16;10.80;99.90
60309;DHT22;50313;52.894;6.492;2023-09-30T02:44:42;10.80;99.90
60309;DHT22;50313;52.894;6.492;2023-09-30T02:47:08;10.80;99.90
60309;DHT22;50313;52.894;6.492;2023-09-30T02:49:34;10.70;99.90
60309;DHT22;50313;52.894;6.492;2023-09-30T02:52:00;10.80;99.90
60309;DHT22;50313;52.894;6.492;2023-09-30T02:54:26;10.70;99.90
60309;DHT22;50313;52.894;6.492;2023-09-30T02:56:52;10.70;99.90
60309;DHT22;50313;52.894;6.492;2023-09-30T02:59:20;10.80;99.90
60309;DHT22;50313;52.894;6.492;2023-09-30T03:01:48;10.80;99.90
60309;DHT22;50313;52.894;6.492;2023-09-30T03:04:13;10.80;99.90
60309;DHT22;50313;52.894;6.492;2023-09-30T03:06:39;10.80;99.90
60309;DHT22;50313;52.894;6.492;2023-09-30T03:09:05;10.90;99.90
60309;DHT22;50313;52.894;6.492;2023-09-30T03:11:32;10.90;99.90
60309;DHT22;50313;52.894;6.492;2023-09-30T03:13:59;10.90;99.90
60309;DHT22;50313;52.894;6.492;2023-09-30T03:16:25;11.00;99.90
60309;DHT22;50313;52.894;6.492;2023-09-30T03:18:51;11.00;99.90
60309;DHT22;50313;52.894;6.492;2023-09-30T03:21:17;11.00;99.90
60309;DHT22;50313;52.894;6.492;2023-09-30T03:23:43;11.00;99.90
60309;DHT22;50313;52.894;6.492;2023-09-30T03:26:09;11.00;99.90
60309;DHT22;50313;52.894;6.492;2023-09-30T03:28:39;11.00;99.90
60309;DHT22;50313;52.894;6.492;2023-09-30T03:31:05;11.00;99.90
60309;DHT22;50313;52.894;6.492;2023-09-30T03:33:34;10.90;99.90
60309;DHT22;50313;52.894;6.492;2023-09-30T03:36:00;11.00;99.90
60309;DHT22;50313;52.894;6.492;2023-09-30T03:38:26;11.00;99.90
60309;DHT22;50313;52.894;6.492;2023-09-30T03:40:52;10.90;99.90
60309;DHT22;50313;52.894;6.492;2023-09-30T03:43:21;11.00;99.90
60309;DHT22;50313;52.894;6.492;2023-09-30T03:45:47;11.00;99.90
60309;DHT22;50313;52.894;6.492;2023-09-30T03:48:12;11.00;99.90
60309;DHT22;50313;52.894;6.492;2023-09-30T03:50:38;11.00;99.90
60309;DHT22;50313;52.894;6.492;2023-09-30T03:53:05;11.00;99.90
60309;DHT22;50313;52.894;6.492;2023-09-30T03:55:31;11.00;99.90
60309;DHT22;50313;52.894;6.492;2023-09-30T03:57:58;11.00;99.90
60309;DHT22;50313;52.894;6.492;2023-09-30T04:00:23;11.00;99.90
60309;DHT22;50313;52.894;6.492;2023-09-30T04:02:50;10.90;99.90
60309;DHT22;50313;52.894;6.492;2023-09-30T04:05:20;10.90;99.90
60309;DHT22;50313;52.894;6.492;2023-09-30T04:07:51;10.80;99.90
60309;DHT22;50313;52.894;6.492;2023-09-30T04:10:17;10.80;99.90
60309;DHT22;50313;52.894;6.492;2023-09-30T04:12:43;10.90;99.90
60309;DHT22;50313;52.894;6.492;2023-09-30T04:15:09;10.90;99.90
60309;DHT22;50313;52.894;6.492;2023-09-30T04:17:38;10.90;99.90
60309;DHT22;50313;52.894;6.492;2023-09-30T04:20:07;10.90;99.90
60309;DHT22;50313;52.894;6.492;2023-09-30T04:22:36;10.90;99.90
60309;DHT22;50313;52.894;6.492;2023-09-30T04:25:03;10.90;99.90
60309;DHT22;50313;52.894;6.492;2023-09-30T04:27:34;10.90;99.90
60309;DHT22;50313;52.894;6.492;2023-09-30T04:30:00;10.90;99.90
60309;DHT22;50313;52.894;6.492;2023-09-30T04:32:25;10.90;99.90
60309;DHT22;50313;52.894;6.492;2023-09-30T04:34:53;11.00;99.90
60309;DHT22;50313;52.894;6.492;2023-09-30T04:37:18;10.90;99.90
60309;DHT22;50313;52.894;6.492;2023-09-30T04:39:44;10.90;99.90
60309;DHT22;50313;52.894;6.492;2023-09-30T04:42:10;11.00;99.90
60309;DHT22;50313;52.894;6.492;2023-09-30T04:44:37;10.90;99.90
60309;DHT22;50313;52.894;6.492;2023-09-30T04:47:04;10.90;99.90
60309;DHT22;50313;52.894;6.492;2023-09-30T04:49:30;10.90;99.90
60309;DHT22;50313;52.894;6.492;2023-09-30T04:51:57;10.90;99.90
60309;DHT22;50313;52.894;6.492;2023-09-30T04:54:23;10.90;99.90
60309;DHT22;50313;52.894;6.492;2023-09-30T04:56:49;11.00;99.90
60309;DHT22;50313;52.894;6.492;2023-09-30T04:59:16;11.00;99.90
60309;DHT22;50313;52.894;6.492;2023-09-30T05:01:42;11.00;99.90
60309;DHT22;50313;52.894;6.492;2023-09-30T05:04:08;11.10;99.90
60309;DHT22;50313;52.894;6.492;2023-09-30T05:06:35;11.10;99.90
60309;DHT22;50313;52.894;6.492;2023-09-30T05:09:01;11.10;99.90
60309;DHT22;50313;52.894;6.492;2023-09-30T05:11:28;11.20;99.90
60309;DHT22;50313;52.894;6.492;2023-09-30T05:13:53;11.20;99.90
60309;DHT22;50313;52.894;6.492;2023-09-30T05:16:19;11.20;99.90
60309;DHT22;50313;52.894;6.492;2023-09-30T05:18:46;11.30;99.90
60309;DHT22;50313;52.894;6.492;2023-09-30T05:21:13;11.20;99.90
60309;DHT22;50313;52.894;6.492;2023-09-30T05:23:39;11.10;99.90
60309;DHT22;50313;52.894;6.492;2023-09-30T05:26:05;11.10;99.90
60309;DHT22;50313;52.894;6.492;2023-09-30T05:28:31;11.10;99.90
60309;DHT22;50313;52.894;6.492;2023-09-30T05:30:57;11.10;99.90
60309;DHT22;50313;52.894;6.492;2023-09-30T05:33:23;11.10;99.90
60309;DHT22;50313;52.894;6.492;2023-09-30T05:35:49;11.00;99.90
60309;DHT22;50313;52.894;6.492;2023-09-30T05:38:15;11.00;99.90
60309;DHT22;50313;52.894;6.492;2023-09-30T05:40:42;11.10;99.90
60309;DHT22;50313;52.894;6.492;2023-09-30T05:43:08;11.00;99.90
60309;DHT22;50313;52.894;6.492;2023-09-30T05:45:34;11.00;99.90
60309;DHT22;50313;52.894;6.492;2023-09-30T05:48:02;10.90;99.90
60309;DHT22;50313;52.894;6.492;2023-09-30T05:50:31;10.90;99.90
60309;DHT22;50313;52.894;6.492;2023-09-30T05:52:59;10.90;99.90
60309;DHT22;50313;52.894;6.492;2023-09-30T05:55:25;10.80;99.90
60309;DHT22;50313;52.894;6.492;2023-09-30T05:57:51;10.80;99.90
60309;DHT22;50313;52.894;6.492;2023-09-30T06:00:20;10.80;99.90
60309;DHT22;50313;52.894;6.492;2023-09-30T06:02:49;10.80;99.90
60309;DHT22;50313;52.894;6.492;2023-09-30T06:05:15;10.70;99.90
60309;DHT22;50313;52.894;6.492;2023-09-30T06:07:53;10.80;99.90
60309;DHT22;50313;52.894;6.492;2023-09-30T06:10:20;10.70;99.90
60309;DHT22;50313;52.894;6.492;2023-09-30T06:12:51;10.70;99.90
60309;DHT22;50313;52.894;6.492;2023-09-30T06:15:21;10.70;99.90
60309;DHT22;50313;52.894;6.492;2023-09-30T06:17:52;10.80;99.90
60309;DHT22;50313;52.894;6.492;2023-09-30T06:20:21;10.70;99.90
60309;DHT22;50313;52.894;6.492;2023-09-30T06:22:48;10.80;99.90
60309;DHT22;50313;52.894;6.492;2023-09-30T06:25:19;10.80;99.90
60309;DHT22;50313;52.894;6.492;2023-09-30T06:27:46;10.80;99.90
60309;DHT22;50313;52.894;6.492;2023-09-30T06:30:16;10.90;99.90
60309;DHT22;50313;52.894;6.492;2023-09-30T06:32:43;10.90;99.90
60309;DHT22;50313;52.894;6.492;2023-09-30T06:35:09;11.00;99.90
60309;DHT22;50313;52.894;6.492;2023-09-30T06:37:39;11.00;99.90
60309;DHT22;50313;52.894;6.492;2023-09-30T06:40:06;11.10;99.90
60309;DHT22;50313;52.894;6.492;2023-09-30T06:42:34;11.10;99.90
60309;DHT22;50313;52.894;6.492;2023-09-30T06:45:03;11.10;99.90
60309;DHT22;50313;52.894;6.492;2023-09-30T06:47:32;11.20;99.90
60309;DHT22;50313;52.894;6.492;2023-09-30T06:50:00;11.20;99.90
60309;DHT22;50313;52.894;6.492;2023-09-30T06:52:40;11.30;99.90
60309;DHT22;50313;52.894;6.492;2023-09-30T06:55:07;11.40;99.90
60309;DHT22;50313;52.894;6.492;2023-09-30T06:57:33;11.40;99.90
60309;DHT22;50313;52.894;6.492;2023-09-30T06:59:59;11.50;99.90
60309;DHT22;50313;52.894;6.492;2023-09-30T07:02:26;11.50;99.90
60309;DHT22;50313;52.894;6.492;2023-09-30T07:04:52;11.60;99.90
60309;DHT22;50313;52.894;6.492;2023-09-30T07:07:18;11.70;99.90
60309;DHT22;50313;52.894;6.492;2023-09-30T07:09:44;11.70;99.90
60309;DHT22;50313;52.894;6.492;2023-09-30T07:12:10;11.80;99.90
60309;DHT22;50313;52.894;6.492;2023-09-30T07:14:36;11.80;99.90
60309;DHT22;50313;52.894;6.492;2023-09-30T07:17:01;11.90;99.90
60309;DHT22;50313;52.894;6.492;2023-09-30T07:19:30;12.00;99.90
60309;DHT22;50313;52.894;6.492;2023-09-30T07:21:56;12.10;99.90
60309;DHT22;50313;52.894;6.492;2023-09-30T07:24:22;12.20;99.90
60309;DHT22;50313;52.894;6.492;2023-09-30T07:26:48;12.30;99.90
60309;DHT22;50313;52.894;6.492;2023-09-30T07:29:13;12.30;99.90
60309;DHT22;50313;52.894;6.492;2023-09-30T07:31:39;12.40;99.90
60309;DHT22;50313;52.894;6.492;2023-09-30T07:34:05;12.40;99.90
60309;DHT22;50313;52.894;6.492;2023-09-30T07:36:31;12.50;99.90
60309;DHT22;50313;52.894;6.492;2023-09-30T07:38:57;12.60;99.90
60309;DHT22;50313;52.894;6.492;2023-09-30T07:41:22;12.70;99.90
60309;DHT22;50313;52.894;6.492;2023-09-30T07:43:48;12.80;99.90
60309;DHT22;50313;52.894;6.492;2023-09-30T07:46:14;12.90;99.90
60309;DHT22;50313;52.894;6.492;2023-09-30T07:48:41;12.90;99.90
60309;DHT22;50313;52.894;6.492;2023-09-30T07:51:06;13.00;99.90
60309;DHT22;50313;52.894;6.492;2023-09-30T07:53:38;13.10;99.90
60309;DHT22;50313;52.894;6.492;2023-09-30T07:56:05;13.10;99.90
60309;DHT22;50313;52.894;6.492;2023-09-30T07:58:31;13.20;99.90
60309;DHT22;50313;52.894;6.492;2023-09-30T08:00:58;13.40;99.90
60309;DHT22;50313;52.894;6.492;2023-09-30T08:03:24;13.40;99.90
60309;DHT22;50313;52.894;6.492;2023-09-30T08:05:50;13.40;99.90
60309;DHT22;50313;52.894;6.492;2023-09-30T08:08:16;13.60;99.90
60309;DHT22;50313;52.894;6.492;2023-09-30T08:10:42;13.70;99.90
60309;DHT22;50313;52.894;6.492;2023-09-30T08:13:08;13.70;99.90
60309;DHT22;50313;52.894;6.492;2023-09-30T08:15:35;13.80;99.90
60309;DHT22;50313;52.894;6.492;2023-09-30T08:18:04;13.90;99.90
60309;DHT22;50313;52.894;6.492;2023-09-30T08:20:31;14.00;99.90
60309;DHT22;50313;52.894;6.492;2023-09-30T08:22:57;14.10;99.90
60309;DHT22;50313;52.894;6.492;2023-09-30T08:25:23;14.20;99.90
60309;DHT22;50313;52.894;6.492;2023-09-30T08:27:48;14.20;99.90
60309;DHT22;50313;52.894;6.492;2023-09-30T08:30:15;14.30;99.90
60309;DHT22;50313;52.894;6.492;2023-09-30T08:32:41;14.40;99.90
60309;DHT22;50313;52.894;6.492;2023-09-30T08:35:07;14.50;99.90
60309;DHT22;50313;52.894;6.492;2023-09-30T08:37:33;14.60;99.90
60309;DHT22;50313;52.894;6.492;2023-09-30T08:39:59;14.80;99.90
60309;DHT22;50313;52.894;6.492;2023-09-30T08:42:27;14.80;99.90
60309;DHT22;50313;52.894;6.492;2023-09-30T08:44:58;14.90;99.90
60309;DHT22;50313;52.894;6.492;2023-09-30T08:47:26;15.00;99.90
60309;DHT22;50313;52.894;6.492;2023-09-30T08:49:54;15.00;99.90
60309;DHT22;50313;52.894;6.492;2023-09-30T08:52:23;15.10;99.90
60309;DHT22;50313;52.894;6.492;2023-09-30T08:54:49;15.20;99.90
60309;DHT22;50313;52.894;6.492;2023-09-30T08:57:19;15.30;99.90
60309;DHT22;50313;52.894;6.492;2023-09-30T08:59:46;15.50;99.90
60309;DHT22;50313;52.894;6.492;2023-09-30T09:02:14;15.50;99.90
60309;DHT22;50313;52.894;6.492;2023-09-30T09:04:40;15.60;99.90
60309;DHT22;50313;52.894;6.492;2023-09-30T09:07:06;15.70;99.90
60309;DHT22;50313;52.894;6.492;2023-09-30T09:09:32;15.80;99.90
60309;DHT22;50313;52.894;6.492;2023-09-30T09:11:58;15.90;99.90
60309;DHT22;50313;52.894;6.492;2023-09-30T09:14:37;15.90;99.90
60309;DHT22;50313;52.894;6.492;2023-09-30T09:17:03;16.10;99.90
60309;DHT22;50313;52.894;6.492;2023-09-30T09:19:30;16.20;99.90
60309;DHT22;50313;52.894;6.492;2023-09-30T09:21:58;16.20;99.90
60309;DHT22;50313;52.894;6.492;2023-09-30T09:24:38;16.30;99.90
60309;DHT22;50313;52.894;6.492;2023-09-30T09:27:13;16.50;99.90
60309;DHT22;50313;52.894;6.492;2023-09-30T09:29:43;16.60;99.90
60309;DHT22;50313;52.894;6.492;2023-09-30T09:32:15;16.60;99.90
60309;DHT22;50313;52.894;6.492;2023-09-30T09:34:42;16.80;99.90
60309;DHT22;50313;52.894;6.492;2023-09-30T09:37:20;16.80;99.90
60309;DHT22;50313;52.894;6.492;2023-09-30T09:39:56;16.90;99.90
60309;DHT22;50313;52.894;6.492;2023-09-30T09:42:28;16.90;99.90
60309;DHT22;50313;52.894;6.492;2023-09-30T09:45:02;16.90;94.60
60309;DHT22;50313;52.894;6.492;2023-09-30T09:47:32;17.10;83.40
60309;DHT22;50313;52.894;6.492;2023-09-30T09:49:59;17.10;60.00
60309;DHT22;50313;52.894;6.492;2023-09-30T09:52:25;17.30;86.80
60309;DHT22;50313;52.894;6.492;2023-09-30T09:54:52;17.30;95.40
60309;DHT22;50313;52.894;6.492;2023-09-30T09:57:19;17.30;1.00
60309;DHT22;50313;52.894;6.492;2023-09-30T09:59:45;17.40;34.40
60309;DHT22;50313;52.894;6.492;2023-09-30T10:02:16;17.50;4.70
60309;DHT22;50313;52.894;6.492;2023-09-30T10:04:47;17.60;2.20
60309;DHT22;50313;52.894;6.492;2023-09-30T10:09:47;17.70;1.00
60309;DHT22;50313;52.894;6.492;2023-09-30T10:12:14;17.90;1.00
60309;DHT22;50313;52.894;6.492;2023-09-30T10:14:40;17.90;1.00
60309;DHT22;50313;52.894;6.492;2023-09-30T10:17:06;17.90;1.00
60309;DHT22;50313;52.894;6.492;2023-09-30T10:19:32;18.10;1.00
60309;DHT22;50313;52.894;6.492;2023-09-30T10:24:49;18.20;1.00
60309;DHT22;50313;52.894;6.492;2023-09-30T10:29:54;18.60;99.90
60309;DHT22;50313;52.894;6.492;2023-09-30T10:32:20;18.50;99.90
60309;DHT22;50313;52.894;6.492;2023-09-30T10:34:49;18.90;99.90
60309;DHT22;50313;52.894;6.492;2023-09-30T10:37:23;19.00;99.90
60309;DHT22;50313;52.894;6.492;2023-09-30T10:40:00;19.10;99.90
60309;DHT22;50313;52.894;6.492;2023-09-30T10:42:48;19.20;99.90
60309;DHT22;50313;52.894;6.492;2023-09-30T10:45:42;19.20;99.90
60309;DHT22;50313;52.894;6.492;2023-09-30T10:53:21;19.10;99.90
60309;DHT22;50313;52.894;6.492;2023-09-30T10:55:54;19.10;99.90
60309;DHT22;50313;52.894;6.492;2023-09-30T10:58:20;19.20;99.90
60309;DHT22;50313;52.894;6.492;2023-09-30T11:00:55;19.30;15.60
60309;DHT22;50313;52.894;6.492;2023-09-30T11:03:21;19.60;1.00
60309;DHT22;50313;52.894;6.492;2023-09-30T11:05:48;19.70;1.00
60309;DHT22;50313;52.894;6.492;2023-09-30T11:08:16;19.70;1.00
60309;DHT22;50313;52.894;6.492;2023-09-30T11:10:49;19.50;1.00
60309;DHT22;50313;52.894;6.492;2023-09-30T11:13:20;19.60;1.00
60309;DHT22;50313;52.894;6.492;2023-09-30T11:15:46;19.70;1.00
60309;DHT22;50313;52.894;6.492;2023-09-30T11:18:16;20.00;1.00
60309;DHT22;50313;52.894;6.492;2023-09-30T11:20:43;20.10;99.90
60309;DHT22;50313;52.894;6.492;2023-09-30T11:23:10;20.00;99.90
60309;DHT22;50313;52.894;6.492;2023-09-30T11:25:37;20.10;99.90
60309;DHT22;50313;52.894;6.492;2023-09-30T11:28:17;19.80;1.00
60309;DHT22;50313;52.894;6.492;2023-09-30T11:31:01;19.80;99.90
60309;DHT22;50313;52.894;6.492;2023-09-30T11:33:32;19.70;1.00
60309;DHT22;50313;52.894;6.492;2023-09-30T11:36:01;19.50;1.00
60309;DHT22;50313;52.894;6.492;2023-09-30T11:38:31;19.40;1.00
60309;DHT22;50313;52.894;6.492;2023-09-30T11:41:02;19.30;1.00
60309;DHT22;50313;52.894;6.492;2023-09-30T11:43:30;19.40;1.00
60309;DHT22;50313;52.894;6.492;2023-09-30T11:46:10;19.50;1.00
60309;DHT22;50313;52.894;6.492;2023-09-30T11:48:37;19.50;99.90
60309;DHT22;50313;52.894;6.492;2023-09-30T11:51:04;19.40;99.90
60309;DHT22;50313;52.894;6.492;2023-09-30T11:53:35;19.30;99.90
60309;DHT22;50313;52.894;6.492;2023-09-30T11:56:01;19.40;1.00
60309;DHT22;50313;52.894;6.492;2023-09-30T11:58:32;19.60;1.00
60309;DHT22;50313;52.894;6.492;2023-09-30T12:00:59;19.90;1.00
60309;DHT22;50313;52.894;6.492;2023-09-30T12:03:27;20.10;1.00
60309;DHT22;50313;52.894;6.492;2023-09-30T12:05:54;20.30;1.00
60309;DHT22;50313;52.894;6.492;2023-09-30T12:08:22;20.40;99.90
60309;DHT22;50313;52.894;6.492;2023-09-30T12:10:48;20.50;99.90
60309;DHT22;50313;52.894;6.492;2023-09-30T12:13:14;20.50;99.90
60309;DHT22;50313;52.894;6.492;2023-09-30T12:15:41;20.40;99.90
60309;DHT22;50313;52.894;6.492;2023-09-30T12:18:08;20.30;99.90
60309;DHT22;50313;52.894;6.492;2023-09-30T12:20:35;20.40;99.90
60309;DHT22;50313;52.894;6.492;2023-09-30T12:23:01;20.40;99.90
60309;DHT22;50313;52.894;6.492;2023-09-30T12:25:30;20.60;99.90
60309;DHT22;50313;52.894;6.492;2023-09-30T12:27:55;20.50;99.90
60309;DHT22;50313;52.894;6.492;2023-09-30T12:30:21;20.50;99.90
60309;DHT22;50313;52.894;6.492;2023-09-30T12:32:47;20.50;99.90
60309;DHT22;50313;52.894;6.492;2023-09-30T12:35:13;20.60;99.90
60309;DHT22;50313;52.894;6.492;2023-09-30T12:37:38;20.60;99.90
60309;DHT22;50313;52.894;6.492;2023-09-30T12:40:07;20.80;99.90
60309;DHT22;50313;52.894;6.492;2023-09-30T12:42:33;20.60;99.90
60309;DHT22;50313;52.894;6.492;2023-09-30T12:45:02;20.40;99.90
60309;DHT22;50313;52.894;6.492;2023-09-30T12:47:31;20.70;99.90
60309;DHT22;50313;52.894;6.492;2023-09-30T12:49:57;20.80;99.90
60309;DHT22;50313;52.894;6.492;2023-09-30T12:52:23;20.80;99.90
60309;DHT22;50313;52.894;6.492;2023-09-30T12:54:50;20.70;99.90
60309;DHT22;50313;52.894;6.492;2023-09-30T12:57:15;20.80;99.90
60309;DHT22;50313;52.894;6.492;2023-09-30T12:59:43;21.00;99.90
60309;DHT22;50313;52.894;6.492;2023-09-30T13:02:12;21.00;99.90
60309;DHT22;50313;52.894;6.492;2023-09-30T13:04:38;21.00;99.90
60309;DHT22;50313;52.894;6.492;2023-09-30T13:07:09;21.00;99.90
60309;DHT22;50313;52.894;6.492;2023-09-30T13:09:41;20.80;99.90
60309;DHT22;50313;52.894;6.492;2023-09-30T13:12:08;20.80;99.90
60309;DHT22;50313;52.894;6.492;2023-09-30T13:14:34;20.70;99.90
60309;DHT22;50313;52.894;6.492;2023-09-30T13:17:00;20.90;99.90
60309;DHT22;50313;52.894;6.492;2023-09-30T13:19:26;21.10;99.90
60309;DHT22;50313;52.894;6.492;2023-09-30T13:21:52;21.00;99.90
60309;DHT22;50313;52.894;6.492;2023-09-30T13:24:19;21.00;99.90
60309;DHT22;50313;52.894;6.492;2023-09-30T13:26:45;20.90;99.90
60309;DHT22;50313;52.894;6.492;2023-09-30T13:29:11;20.80;99.90
60309;DHT22;50313;52.894;6.492;2023-09-30T13:31:39;20.70;99.90
60309;DHT22;50313;52.894;6.492;2023-09-30T13:34:05;20.80;99.90
60309;DHT22;50313;52.894;6.492;2023-09-30T13:36:32;20.80;99.90
60309;DHT22;50313;52.894;6.492;2023-09-30T13:38:57;20.90;99.90
60309;DHT22;50313;52.894;6.492;2023-09-30T13:41:23;20.80;99.90
60309;DHT22;50313;52.894;6.492;2023-09-30T13:43:49;20.50;99.90
60309;DHT22;50313;52.894;6.492;2023-09-30T13:46:15;20.60;99.90
60309;DHT22;50313;52.894;6.492;2023-09-30T13:48:41;20.70;99.90
60309;DHT22;50313;52.894;6.492;2023-09-30T13:51:09;21.10;99.90
60309;DHT22;50313;52.894;6.492;2023-09-30T13:53:36;21.40;99.90
60309;DHT22;50313;52.894;6.492;2023-09-30T13:56:02;21.80;99.90
60309;DHT22;50313;52.894;6.492;2023-09-30T13:58:29;22.30;99.90
60309;DHT22;50313;52.894;6.492;2023-09-30T14:00:54;22.50;99.90
60309;DHT22;50313;52.894;6.492;2023-09-30T14:03:22;22.70;99.90
60309;DHT22;50313;52.894;6.492;2023-09-30T14:05:50;22.50;99.90
60309;DHT22;50313;52.894;6.492;2023-09-30T14:08:16;21.90;99.90
60309;DHT22;50313;52.894;6.492;2023-09-30T14:10:42;21.60;99.90
60309;DHT22;50313;52.894;6.492;2023-09-30T14:13:10;22.40;99.90
60309;DHT22;50313;52.894;6.492;2023-09-30T14:15:36;22.10;99.90
60309;DHT22;50313;52.894;6.492;2023-09-30T14:18:02;22.20;99.90
60309;DHT22;50313;52.894;6.492;2023-09-30T14:20:29;22.20;99.90
60309;DHT22;50313;52.894;6.492;2023-09-30T14:22:54;21.80;99.90
60309;DHT22;50313;52.894;6.492;2023-09-30T14:25:21;21.50;99.90
60309;DHT22;50313;52.894;6.492;2023-09-30T14:27:48;21.50;99.90
60309;DHT22;50313;52.894;6.492;2023-09-30T14:30:14;21.40;99.90
60309;DHT22;50313;52.894;6.492;2023-09-30T14:32:40;21.40;99.90
60309;DHT22;50313;52.894;6.492;2023-09-30T14:35:07;21.50;99.90
60309;DHT22;50313;52.894;6.492;2023-09-30T14:37:33;21.20;99.90
60309;DHT22;50313;52.894;6.492;2023-09-30T14:39:58;21.10;99.90
60309;DHT22;50313;52.894;6.492;2023-09-30T14:42:24;21.10;99.90
60309;DHT22;50313;52.894;6.492;2023-09-30T14:44:50;21.00;99.90
60309;DHT22;50313;52.894;6.492;2023-09-30T14:47:15;20.90;99.90
60309;DHT22;50313;52.894;6.492;2023-09-30T14:49:41;20.70;99.90
60309;DHT22;50313;52.894;6.492;2023-09-30T14:52:07;20.80;99.90
60309;DHT22;50313;52.894;6.492;2023-09-30T14:54:35;20.90;99.90
60309;DHT22;50313;52.894;6.492;2023-09-30T14:57:01;21.00;99.90
60309;DHT22;50313;52.894;6.492;2023-09-30T14:59:27;21.00;99.90
60309;DHT22;50313;52.894;6.492;2023-09-30T15:01:53;20.90;99.90
60309;DHT22;50313;52.894;6.492;2023-09-30T15:04:19;21.00;99.90
60309;DHT22;50313;52.894;6.492;2023-09-30T15:06:44;20.90;99.90
60309;DHT22;50313;52.894;6.492;2023-09-30T15:09:11;20.80;99.90
60309;DHT22;50313;52.894;6.492;2023-09-30T15:11:40;20.60;99.90
60309;DHT22;50313;52.894;6.492;2023-09-30T15:14:06;20.50;99.90
60309;DHT22;50313;52.894;6.492;2023-09-30T15:16:32;20.50;99.90
60309;DHT22;50313;52.894;6.492;2023-09-30T15:18:58;20.30;99.90
60309;DHT22;50313;52.894;6.492;2023-09-30T15:21:24;20.40;99.90
60309;DHT22;50313;52.894;6.492;2023-09-30T15:23:50;20.30;99.90
60309;DHT22;50313;52.894;6.492;2023-09-30T15:26:16;20.40;99.90
60309;DHT22;50313;52.894;6.492;2023-09-30T15:28:42;20.60;99.90
60309;DHT22;50313;52.894;6.492;2023-09-30T15:31:10;20.60;99.90
60309;DHT22;50313;52.894;6.492;2023-09-30T15:33:36;20.70;99.90
60309;DHT22;50313;52.894;6.492;2023-09-30T15:36:12;20.60;99.90
60309;DHT22;50313;52.894;6.492;2023-09-30T15:38:38;20.50;99.90
60309;DHT22;50313;52.894;6.492;2023-09-30T15:41:04;20.30;99.90
60309;DHT22;50313;52.894;6.492;2023-09-30T15:43:31;20.10;99.90
60309;DHT22;50313;52.894;6.492;2023-09-30T15:45:58;19.90;1.00
60309;DHT22;50313;52.894;6.492;2023-09-30T15:48:24;19.70;1.00